AirNav   Pilot Hours Calculator
 
 442 users online  

IN0 Big Turkey Lake Seaplane Base
Stroh, Indiana, USA


FAA INFORMATION EFFECTIVE 22 APRIL 2021

Location

FAA Identifier: IN0
Lat/Long: 41-35-05.8800N 085-11-19.0600W
41-35.098000N 085-11.317667W
41.5849667,-85.1886278
(estimated)
Elevation: 927 ft. / 283 m (estimated)
From city: 1 mile NE of STROH, IN
Time zone: UTC -4 (UTC -5 during Standard Time)
Zip code: 46747

Seaplane Base Operations

Seaplane Base use: Open to the public
Activation date: 08/2020
Control tower: no
ARTCC: CHICAGO CENTER
FSS: TERRE HAUTE FLIGHT SERVICE STATION
NOTAMs facility: HUF (NOTAM-D service available)
Attendance: 
Segmented circle: no

Seaplane Base Communications

CTAF: 122.9
WX AWOS-3 at ANQ (6 nm NE): 118.175 (260-668-5630)
WX AWOS-3P at C62 (7 nm SW): 119.925 (260-347-2967)
WX AWOS-3 at GWB (18 nm S): 124.15 (260-925-8225)
WX AWOS-3 at IRS (18 nm NW): 121.325 (269-659-8715)

Nearby radio navigation aids

VOR radial/distance  VOR name  Freq  Var
OLKr037/(24.6)WEBSTER LAKE VOR110.4003W
LFDr218/34.3LITCHFIELD VOR/DME111.2005W
FWAr006/36.4FORT WAYNE VORTAC117.8006W
GSHr085/37.9GOSHEN VORTAC113.7000E

 
NDB name  Hdg/Dist  Freq  Var  ID
STURGIS145/17.638204WIRS .. .-. ...

Seaplane Base Services

Runway Information

Runway 16W/34W

Dimensions: 2675 x 100 ft. / 815 x 30 m
Surface: water
RUNWAY 16W  RUNWAY 34W
Latitude: 41-35.309667N41-34.905333N
Longitude: 085-11.460333W085-11.230333W
Elevation: 927.0 ft.927.0 ft.
Traffic pattern: leftleft

Seaplane Base Ownership and Management from official FAA records

Ownership: Publicly-owned
Owner: INDIANA DEPT OF NATURAL RESOURCES
402 W. WASHINGTON ST, RM W-255D
INDIANAPOLIS, IN 46204
Phone 317-232-0935
Manager: KENTON TURNER
402 W. WASHINGTON ST, RM-255D
INDIANAPOLIS, IN 46204
Phone 317-232-0935

Instrument Procedures

There are no published instrument procedures at IN0.

Some nearby airports with instrument procedures:

KANQ - Tri-State Steuben County Airport (6 nm NE)
C62 - Kendallville Municipal Airport (7 nm SW)
KGWB - De Kalb County Airport (18 nm S)
KIRS - Kirsch Municipal Airport (18 nm NW)
KOEB - Branch County Memorial Airport (22 nm N)
 
Loc | Ops | Rwys | IFR | FBO | Links
Com | Nav | Svcs | Stats | Notes
Aerial photo
No photo
 
Airport distance calculator
Flying to Big Turkey Lake Seaplane Base? Find the distance to fly.

From to IN0

Sunrise and sunset
Times for 15-May-2021
 Local
(UTC-4)
 Zulu
(UTC)
Morning civil twilight05:5109:51
Sunrise06:2210:22
Sunset20:5200:52
Evening civil twilight21:2401:24

Current date and time
Zulu (UTC)  15-May-2021 08:55:58
Local (UTC-4)  15-May-2021 04:55:58
 
METAR
KANQ 
6nm NE 
150835Z AUTO 00000KT 10SM FEW046 FEW050 FEW090 07/05 A3025 RMK AO2
KC62 
7nm SW 
150835Z AUTO 00000KT 10SM CLR 07/04 A3025 RMK AO2 T00760045
KIRS 
17nm NW 
150835Z AUTO 00000KT 10SM CLR 08/03 A3024 RMK AO2 T00810025
KGWB 
18nm S 
150835Z AUTO 00000KT 10SM CLR 07/03 A3025 RMK AO2
TAF
KFWA 
37nm S 
150520Z 1506/1606 21003KT P6SM FEW250 FM151600 22008KT P6SM OVC080 FM160300 18003KT P6SM OVC040
KAZO 
42nm N 
150521Z 1506/1606 00000KT P6SM SCT090 BKN250 FM151600 22011KT P6SM BKN120 FM152200 26004KT P6SM -SHRA OVC050 FM160400 14003KT P6SM OVC040
KBTL 
44nm N 
150521Z 1506/1606 00000KT P6SM SCT090 BKN250 FM151600 24011KT P6SM BKN120 FM152300 28004KT P6SM -SHRA OVC050 FM160400 14003KT P6SM OVC040
NOTAMs
Click for the latest NOTAMs
NOTAMs are issued by the DoD/FAA and will open in a separate window not controlled by AirNav.

 

 
 

Would you like to see your business listed on this page?

 If your business provides an interesting product or service to pilots, flight crews, aircraft, or users of the Big Turkey Lake Seaplane Base, you should consider listing it here.  To start the listing process, click on the button below
 
Add a business
 

Other Pages about Big Turkey Lake Seaplane Base

Update a link
 
Copyright © AirNav, LLC. All rights reserved. Privacy Policy  Contact